Terminal Aerodrome Forecast
Issued by NWS

Home | Current Version | Previous Version | Text Only | Print | Product List | Glossary On
Versions: 1 2 3 4 5 6 7 8 9 10 11 12 13 14
000
FTUS43 KUNR 202300
TAFGCC
TAF
KGCC 202320Z 2100/2124 18005KT P6SM SKC
     FM210400 20014KT P6SM SKC
     FM211800 21018G28KT P6SM SCT200=

USA.gov is the U.S. government's official web portal to all federal, state and local government web resources and services.